sensor_id;sensor_type;location;lat;lon;timestamp;pressure;altitude;pressure_sealevel;temperature;humidity
66945;BME280;53853;51.982;5.928;2022-08-20T00:00:08;101446.06;;;21.62;73.68
66945;BME280;53853;51.982;5.928;2022-08-20T00:02:41;101446.06;;;21.62;73.49
66945;BME280;53853;51.982;5.928;2022-08-20T00:05:12;101438.97;;;21.61;73.29
66945;BME280;53853;51.982;5.928;2022-08-20T00:07:42;101432.50;;;21.62;73.10
66945;BME280;53853;51.982;5.928;2022-08-20T00:10:15;101433.34;;;21.63;73.37
66945;BME280;53853;51.982;5.928;2022-08-20T00:12:46;101433.34;;;21.63;73.28
66945;BME280;53853;51.982;5.928;2022-08-20T00:15:19;101435.22;;;21.62;73.52
66945;BME280;53853;51.982;5.928;2022-08-20T00:17:50;101440.03;;;21.60;73.50
66945;BME280;53853;51.982;5.928;2022-08-20T00:20:22;101441.28;;;21.58;73.56
66945;BME280;53853;51.982;5.928;2022-08-20T00:22:52;101447.72;;;21.57;73.96
66945;BME280;53853;51.982;5.928;2022-08-20T00:25:26;101438.78;;;21.56;73.51
66945;BME280;53853;51.982;5.928;2022-08-20T00:27:57;101436.06;;;21.56;73.38
66945;BME280;53853;51.982;5.928;2022-08-20T00:30:30;101439.59;;;21.57;73.67
66945;BME280;53853;51.982;5.928;2022-08-20T00:33:04;101437.28;;;21.53;73.79
66945;BME280;53853;51.982;5.928;2022-08-20T00:35:36;101442.50;;;21.55;73.43
66945;BME280;53853;51.982;5.928;2022-08-20T00:38:07;101441.69;;;21.55;73.96
66945;BME280;53853;51.982;5.928;2022-08-20T00:40:43;101434.78;;;21.52;73.64
66945;BME280;53853;51.982;5.928;2022-08-20T00:43:28;101440.00;;;21.53;73.76
66945;BME280;53853;51.982;5.928;2022-08-20T00:45:59;101440.00;;;21.53;73.72
66945;BME280;53853;51.982;5.928;2022-08-20T00:48:32;101441.28;;;21.51;74.21
66945;BME280;53853;51.982;5.928;2022-08-20T00:51:06;101437.91;;;21.49;74.29
66945;BME280;53853;51.982;5.928;2022-08-20T00:53:37;101436.44;;;21.46;74.62
66945;BME280;53853;51.982;5.928;2022-08-20T00:56:11;101449.16;;;21.46;74.77
66945;BME280;53853;51.982;5.928;2022-08-20T00:58:42;101451.66;;;21.41;74.76
66945;BME280;53853;51.982;5.928;2022-08-20T01:01:14;101447.91;;;21.35;75.33
66945;BME280;53853;51.982;5.928;2022-08-20T01:03:45;101445.16;;;21.28;75.36
66945;BME280;53853;51.982;5.928;2022-08-20T01:06:15;101442.25;;;21.23;75.80
66945;BME280;53853;51.982;5.928;2022-08-20T01:08:44;101438.28;;;21.19;75.79
66945;BME280;53853;51.982;5.928;2022-08-20T01:11:17;101439.31;;;21.18;76.42
66945;BME280;53853;51.982;5.928;2022-08-20T01:13:48;101436.59;;;21.11;76.17
66945;BME280;53853;51.982;5.928;2022-08-20T01:16:20;101442.63;;;21.07;77.47
66945;BME280;53853;51.982;5.928;2022-08-20T01:18:52;101449.09;;;21.06;78.04
66945;BME280;53853;51.982;5.928;2022-08-20T01:21:25;101445.75;;;21.04;77.69
66945;BME280;53853;51.982;5.928;2022-08-20T01:24:02;101450.56;;;21.02;79.05
66945;BME280;53853;51.982;5.928;2022-08-20T01:26:39;101448.88;;;21.01;78.85
66945;BME280;53853;51.982;5.928;2022-08-20T01:29:12;101455.31;;;20.99;78.45
66945;BME280;53853;51.982;5.928;2022-08-20T01:31:43;101452.00;;;20.97;79.63
66945;BME280;53853;51.982;5.928;2022-08-20T01:34:16;101451.16;;;20.97;78.45
66945;BME280;53853;51.982;5.928;2022-08-20T01:36:50;101442.59;;;20.93;78.68
66945;BME280;53853;51.982;5.928;2022-08-20T01:39:23;101439.25;;;20.91;78.07
66945;BME280;53853;51.982;5.928;2022-08-20T01:42:02;101436.31;;;20.86;78.00
66945;BME280;53853;51.982;5.928;2022-08-20T01:44:37;101436.72;;;20.83;78.16
66945;BME280;53853;51.982;5.928;2022-08-20T01:47:12;101435.44;;;20.79;78.59
66945;BME280;53853;51.982;5.928;2022-08-20T01:49:45;101426.09;;;20.75;79.08
66945;BME280;53853;51.982;5.928;2022-08-20T01:52:21;101436.66;;;20.70;79.44
66945;BME280;53853;51.982;5.928;2022-08-20T01:54:53;101431.69;;;20.67;79.56
66945;BME280;53853;51.982;5.928;2022-08-20T01:57:25;101434.75;;;20.63;79.30
66945;BME280;53853;51.982;5.928;2022-08-20T01:59:55;101438.69;;;20.61;79.38
66945;BME280;53853;51.982;5.928;2022-08-20T02:02:25;101444.91;;;20.55;79.24
66945;BME280;53853;51.982;5.928;2022-08-20T02:04:55;101440.09;;;20.50;79.61
66945;BME280;53853;51.982;5.928;2022-08-20T02:07:26;101440.09;;;20.50;80.30
66945;BME280;53853;51.982;5.928;2022-08-20T02:09:58;101445.53;;;20.50;80.16
66945;BME280;53853;51.982;5.928;2022-08-20T02:12:31;101441.34;;;20.48;80.17
66945;BME280;53853;51.982;5.928;2022-08-20T02:15:01;101445.91;;;20.47;80.51
66945;BME280;53853;51.982;5.928;2022-08-20T02:17:31;101436.97;;;20.47;80.65
66945;BME280;53853;51.982;5.928;2022-08-20T02:20:05;101436.78;;;20.48;81.01
66945;BME280;53853;51.982;5.928;2022-08-20T02:22:43;101443.00;;;20.49;80.60
66945;BME280;53853;51.982;5.928;2022-08-20T02:25:15;101458.03;;;20.51;79.74
66945;BME280;53853;51.982;5.928;2022-08-20T02:27:47;101456.16;;;20.52;79.71
66945;BME280;53853;51.982;5.928;2022-08-20T02:30:20;101457.19;;;20.51;80.34
66945;BME280;53853;51.982;5.928;2022-08-20T02:32:50;101474.28;;;20.51;79.91
66945;BME280;53853;51.982;5.928;2022-08-20T02:35:20;101460.53;;;20.53;80.00
66945;BME280;53853;51.982;5.928;2022-08-20T02:37:50;101457.41;;;20.49;80.66
66945;BME280;53853;51.982;5.928;2022-08-20T02:40:22;101456.34;;;20.50;80.62
66945;BME280;53853;51.982;5.928;2022-08-20T02:42:55;101461.75;;;20.50;80.93
66945;BME280;53853;51.982;5.928;2022-08-20T02:45:24;101468.22;;;20.49;80.65
66945;BME280;53853;51.982;5.928;2022-08-20T02:47:55;101464.88;;;20.47;80.71
66945;BME280;53853;51.982;5.928;2022-08-20T02:50:26;101456.94;;;20.45;80.88
66945;BME280;53853;51.982;5.928;2022-08-20T02:52:56;101461.53;;;20.45;81.00
66945;BME280;53853;51.982;5.928;2022-08-20T02:55:25;101462.56;;;20.44;81.26
66945;BME280;53853;51.982;5.928;2022-08-20T02:57:59;101454.44;;;20.44;81.34
66945;BME280;53853;51.982;5.928;2022-08-20T03:00:31;101451.31;;;20.40;81.38
66945;BME280;53853;51.982;5.928;2022-08-20T03:03:01;101453.38;;;20.38;81.01
66945;BME280;53853;51.982;5.928;2022-08-20T03:05:31;101446.72;;;20.41;80.77
66945;BME280;53853;51.982;5.928;2022-08-20T03:08:01;101451.09;;;20.42;80.73
66945;BME280;53853;51.982;5.928;2022-08-20T03:10:34;101451.31;;;20.40;80.69
66945;BME280;53853;51.982;5.928;2022-08-20T03:13:07;101454.00;;;20.40;80.59
66945;BME280;53853;51.982;5.928;2022-08-20T03:15:40;101442.34;;;20.40;80.81
66945;BME280;53853;51.982;5.928;2022-08-20T03:18:10;101442.56;;;20.38;80.77
66945;BME280;53853;51.982;5.928;2022-08-20T03:20:41;101438.16;;;20.37;80.92
66945;BME280;53853;51.982;5.928;2022-08-20T03:23:11;101450.22;;;20.35;80.91
66945;BME280;53853;51.982;5.928;2022-08-20T03:25:41;101456.69;;;20.34;80.60
66945;BME280;53853;51.982;5.928;2022-08-20T03:28:16;101461.91;;;20.35;80.29
66945;BME280;53853;51.982;5.928;2022-08-20T03:30:46;101460.84;;;20.36;79.92
66945;BME280;53853;51.982;5.928;2022-08-20T03:33:17;101456.09;;;20.38;79.81
66945;BME280;53853;51.982;5.928;2022-08-20T03:35:48;101445.47;;;20.37;79.78
66945;BME280;53853;51.982;5.928;2022-08-20T03:38:20;101455.00;;;20.33;81.04
66945;BME280;53853;51.982;5.928;2022-08-20T03:40:52;101462.09;;;20.34;80.47
66945;BME280;53853;51.982;5.928;2022-08-20T03:43:24;101464.16;;;20.32;80.87
66945;BME280;53853;51.982;5.928;2022-08-20T03:45:54;101453.31;;;20.32;81.01
66945;BME280;53853;51.982;5.928;2022-08-20T03:48:24;101446.25;;;20.31;81.75
66945;BME280;53853;51.982;5.928;2022-08-20T03:50:54;101453.97;;;20.34;81.18
66945;BME280;53853;51.982;5.928;2022-08-20T03:53:27;101456.69;;;20.34;80.66
66945;BME280;53853;51.982;5.928;2022-08-20T03:55:59;101459.59;;;20.32;80.81
66945;BME280;53853;51.982;5.928;2022-08-20T03:58:33;101455.41;;;20.30;81.24
66945;BME280;53853;51.982;5.928;2022-08-20T04:01:04;101464.38;;;20.30;81.39
66945;BME280;53853;51.982;5.928;2022-08-20T04:03:35;101466.03;;;20.31;81.31
66945;BME280;53853;51.982;5.928;2022-08-20T04:06:05;101457.09;;;20.31;81.18
66945;BME280;53853;51.982;5.928;2022-08-20T04:08:35;101474.97;;;20.32;81.06
66945;BME280;53853;51.982;5.928;2022-08-20T04:11:08;101470.22;;;20.34;80.66
66945;BME280;53853;51.982;5.928;2022-08-20T04:13:41;101471.88;;;20.35;80.14
66945;BME280;53853;51.982;5.928;2022-08-20T04:16:11;101470.84;;;20.36;79.91
66945;BME280;53853;51.982;5.928;2022-08-20T04:18:40;101469.16;;;20.35;80.39
66945;BME280;53853;51.982;5.928;2022-08-20T04:21:10;101473.94;;;20.33;80.14
66945;BME280;53853;51.982;5.928;2022-08-20T04:23:40;101474.97;;;20.32;80.33
66945;BME280;53853;51.982;5.928;2022-08-20T04:26:10;101470.63;;;20.31;80.13
66945;BME280;53853;51.982;5.928;2022-08-20T04:28:43;101464.59;;;20.29;80.32
66945;BME280;53853;51.982;5.928;2022-08-20T04:31:13;101466.44;;;20.28;80.74
66945;BME280;53853;51.982;5.928;2022-08-20T04:33:43;101475.16;;;20.23;81.40
66945;BME280;53853;51.982;5.928;2022-08-20T04:36:13;101472.63;;;20.22;81.42
66945;BME280;53853;51.982;5.928;2022-08-20T04:38:43;101486.81;;;20.24;81.23
66945;BME280;53853;51.982;5.928;2022-08-20T04:41:13;101488.47;;;20.25;81.34
66945;BME280;53853;51.982;5.928;2022-08-20T04:43:45;101485.56;;;20.26;81.63
66945;BME280;53853;51.982;5.928;2022-08-20T04:46:15;101489.97;;;20.27;81.44
66945;BME280;53853;51.982;5.928;2022-08-20T04:48:45;101488.75;;;20.30;80.97
66945;BME280;53853;51.982;5.928;2022-08-20T04:51:15;101489.56;;;20.31;80.45
66945;BME280;53853;51.982;5.928;2022-08-20T04:53:46;101505.81;;;20.31;80.28
66945;BME280;53853;51.982;5.928;2022-08-20T04:56:15;101497.06;;;20.29;80.28
66945;BME280;53853;51.982;5.928;2022-08-20T04:58:52;101502.66;;;20.27;80.15
66945;BME280;53853;51.982;5.928;2022-08-20T05:01:23;101508.28;;;20.25;80.19
66945;BME280;53853;51.982;5.928;2022-08-20T05:03:54;101522.00;;;20.24;79.93
66945;BME280;53853;51.982;5.928;2022-08-20T05:06:26;101521.53;;;20.20;79.87
66945;BME280;53853;51.982;5.928;2022-08-20T05:08:59;101507.94;;;20.07;79.52
66945;BME280;53853;51.982;5.928;2022-08-20T05:11:29;101510.13;;;19.97;80.38
66945;BME280;53853;51.982;5.928;2022-08-20T05:14:03;101519.69;;;19.93;81.52
66945;BME280;53853;51.982;5.928;2022-08-20T05:16:34;101525.88;;;19.86;81.76
66945;BME280;53853;51.982;5.928;2022-08-20T05:19:07;101528.31;;;19.81;81.28
66945;BME280;53853;51.982;5.928;2022-08-20T05:21:38;101527.38;;;19.74;80.27
66945;BME280;53853;51.982;5.928;2022-08-20T05:24:08;101527.91;;;19.63;79.49
66945;BME280;53853;51.982;5.928;2022-08-20T05:26:39;101529.06;;;19.53;79.19
66945;BME280;53853;51.982;5.928;2022-08-20T05:29:11;101523.53;;;19.40;79.40
66945;BME280;53853;51.982;5.928;2022-08-20T05:31:41;101525.50;;;19.31;79.82
66945;BME280;53853;51.982;5.928;2022-08-20T05:34:12;101525.22;;;19.26;81.58
66945;BME280;53853;51.982;5.928;2022-08-20T05:36:45;101530.81;;;19.25;81.41
66945;BME280;53853;51.982;5.928;2022-08-20T05:39:16;101528.75;;;19.27;82.61
66945;BME280;53853;51.982;5.928;2022-08-20T05:41:46;101531.66;;;19.25;82.81
66945;BME280;53853;51.982;5.928;2022-08-20T05:44:19;101535.22;;;19.26;83.28
66945;BME280;53853;51.982;5.928;2022-08-20T05:46:49;101530.25;;;19.29;83.55
66945;BME280;53853;51.982;5.928;2022-08-20T05:49:20;101536.50;;;19.30;83.60
66945;BME280;53853;51.982;5.928;2022-08-20T05:51:50;101527.56;;;19.29;83.37
66945;BME280;53853;51.982;5.928;2022-08-20T05:54:20;101539.19;;;19.30;84.15
66945;BME280;53853;51.982;5.928;2022-08-20T05:56:50;101539.38;;;19.28;83.87
66945;BME280;53853;51.982;5.928;2022-08-20T05:59:23;101534.34;;;19.25;83.56
66945;BME280;53853;51.982;5.928;2022-08-20T06:01:53;101547.78;;;19.18;84.03
66945;BME280;53853;51.982;5.928;2022-08-20T06:04:23;101543.16;;;19.12;83.63
66945;BME280;53853;51.982;5.928;2022-08-20T06:06:51;101546.91;;;19.11;83.54
66945;BME280;53853;51.982;5.928;2022-08-20T06:09:23;101545.84;;;19.12;83.30
66945;BME280;53853;51.982;5.928;2022-08-20T06:11:53;101551.25;;;19.12;83.31
66945;BME280;53853;51.982;5.928;2022-08-20T06:14:27;101543.34;;;19.11;83.56
66945;BME280;53853;51.982;5.928;2022-08-20T06:17:03;101543.53;;;19.09;83.75
66945;BME280;53853;51.982;5.928;2022-08-20T06:19:33;101544.75;;;19.07;84.25
66945;BME280;53853;51.982;5.928;2022-08-20T06:22:05;101550.34;;;19.05;84.37
66945;BME280;53853;51.982;5.928;2022-08-20T06:24:35;101543.91;;;19.06;84.92
66945;BME280;53853;51.982;5.928;2022-08-20T06:27:05;101541.88;;;19.08;85.56
66945;BME280;53853;51.982;5.928;2022-08-20T06:29:38;101539.81;;;19.10;85.37
66945;BME280;53853;51.982;5.928;2022-08-20T06:32:07;101543.81;;;19.14;85.63
66945;BME280;53853;51.982;5.928;2022-08-20T06:34:37;101542.28;;;19.27;84.90
66945;BME280;53853;51.982;5.928;2022-08-20T06:37:14;101544.03;;;19.34;84.81
66945;BME280;53853;51.982;5.928;2022-08-20T06:39:45;101550.16;;;19.43;84.46
66945;BME280;53853;51.982;5.928;2022-08-20T06:42:15;101540.91;;;19.52;84.36
66945;BME280;53853;51.982;5.928;2022-08-20T06:44:48;101561.75;;;19.59;84.41
66945;BME280;53853;51.982;5.928;2022-08-20T06:47:19;101558.22;;;19.58;84.10
66945;BME280;53853;51.982;5.928;2022-08-20T06:49:49;101557.00;;;19.61;84.28
66945;BME280;53853;51.982;5.928;2022-08-20T06:52:19;101558.28;;;19.65;84.94
66945;BME280;53853;51.982;5.928;2022-08-20T06:54:48;101563.78;;;19.71;84.64
66945;BME280;53853;51.982;5.928;2022-08-20T06:57:18;101548.72;;;19.84;84.05
66945;BME280;53853;51.982;5.928;2022-08-20T06:59:53;101550.00;;;19.88;83.85
66945;BME280;53853;51.982;5.928;2022-08-20T07:02:24;101552.53;;;19.89;83.66
66945;BME280;53853;51.982;5.928;2022-08-20T07:04:53;101556.44;;;19.87;83.41
66945;BME280;53853;51.982;5.928;2022-08-20T07:07:42;101550.78;;;19.82;83.57
66945;BME280;53853;51.982;5.928;2022-08-20T07:10:15;101556.38;;;19.80;82.73
66945;BME280;53853;51.982;5.928;2022-08-20T07:12:46;101548.47;;;19.79;82.09
66945;BME280;53853;51.982;5.928;2022-08-20T07:15:21;101554.31;;;19.82;81.28
66945;BME280;53853;51.982;5.928;2022-08-20T07:17:53;101552.91;;;19.86;81.11
66945;BME280;53853;51.982;5.928;2022-08-20T07:20:24;101557.03;;;19.82;79.69
66945;BME280;53853;51.982;5.928;2022-08-20T07:22:54;101561.41;;;19.83;79.15
66945;BME280;53853;51.982;5.928;2022-08-20T07:25:26;101565.44;;;19.72;76.50
66945;BME280;53853;51.982;5.928;2022-08-20T07:28:00;101568.72;;;19.68;77.55
66945;BME280;53853;51.982;5.928;2022-08-20T07:30:33;101565.00;;;19.69;78.46
66945;BME280;53853;51.982;5.928;2022-08-20T07:33:15;101570.59;;;19.67;74.33
66945;BME280;53853;51.982;5.928;2022-08-20T07:35:45;101577.97;;;19.59;73.20
66945;BME280;53853;51.982;5.928;2022-08-20T07:38:17;101581.91;;;19.56;73.82
66945;BME280;53853;51.982;5.928;2022-08-20T07:40:50;101581.72;;;19.58;73.35
66945;BME280;53853;51.982;5.928;2022-08-20T07:43:20;101581.28;;;19.54;73.23
66945;BME280;53853;51.982;5.928;2022-08-20T07:45:54;101581.91;;;19.56;73.66
66945;BME280;53853;51.982;5.928;2022-08-20T07:48:27;101583.38;;;19.59;72.85
66945;BME280;53853;51.982;5.928;2022-08-20T07:50:59;101581.34;;;19.61;72.07
66945;BME280;53853;51.982;5.928;2022-08-20T07:53:30;101584.25;;;19.59;70.01
66945;BME280;53853;51.982;5.928;2022-08-20T07:56:00;101594.88;;;19.61;70.68
66945;BME280;53853;51.982;5.928;2022-08-20T07:58:33;101582.63;;;19.65;70.36
66945;BME280;53853;51.982;5.928;2022-08-20T08:01:06;101586.00;;;19.67;70.67
66945;BME280;53853;51.982;5.928;2022-08-20T08:03:37;101581.66;;;19.72;71.22
66945;BME280;53853;51.982;5.928;2022-08-20T08:06:07;101588.75;;;19.73;72.42
66945;BME280;53853;51.982;5.928;2022-08-20T08:08:38;101589.22;;;19.77;72.77
66945;BME280;53853;51.982;5.928;2022-08-20T08:11:09;101593.50;;;19.86;72.94
66945;BME280;53853;51.982;5.928;2022-08-20T08:13:41;101602.09;;;19.97;72.87
66945;BME280;53853;51.982;5.928;2022-08-20T08:16:13;101600.94;;;20.06;73.53
66945;BME280;53853;51.982;5.928;2022-08-20T08:18:49;101599.34;;;20.12;73.17
66945;BME280;53853;51.982;5.928;2022-08-20T08:21:22;101594.81;;;20.19;72.95
66945;BME280;53853;51.982;5.928;2022-08-20T08:23:52;101589.47;;;20.25;71.51
66945;BME280;53853;51.982;5.928;2022-08-20T08:26:22;101594.50;;;20.29;70.23
66945;BME280;53853;51.982;5.928;2022-08-20T08:28:54;101599.09;;;20.35;70.12
66945;BME280;53853;51.982;5.928;2022-08-20T08:31:27;101594.97;;;20.39;69.55
66945;BME280;53853;51.982;5.928;2022-08-20T08:33:56;101600.59;;;20.37;67.66
66945;BME280;53853;51.982;5.928;2022-08-20T08:36:26;101605.81;;;20.39;68.31
66945;BME280;53853;51.982;5.928;2022-08-20T08:38:56;101602.31;;;20.45;68.78
66945;BME280;53853;51.982;5.928;2022-08-20T08:41:29;101603.38;;;20.51;68.94
66945;BME280;53853;51.982;5.928;2022-08-20T08:44:09;101596.75;;;20.53;67.12
66945;BME280;53853;51.982;5.928;2022-08-20T08:46:44;101603.91;;;20.61;67.67
66945;BME280;53853;51.982;5.928;2022-08-20T08:49:18;101603.91;;;20.61;66.37
66945;BME280;53853;51.982;5.928;2022-08-20T08:51:52;101615.84;;;20.67;66.86
66945;BME280;53853;51.982;5.928;2022-08-20T08:54:27;101614.63;;;20.76;67.60
66945;BME280;53853;51.982;5.928;2022-08-20T08:56:59;101617.44;;;20.89;66.68
66945;BME280;53853;51.982;5.928;2022-08-20T08:59:39;101614.16;;;21.01;67.07
66945;BME280;53853;51.982;5.928;2022-08-20T09:02:19;101621.09;;;21.10;65.39
66945;BME280;53853;51.982;5.928;2022-08-20T09:04:54;101619.25;;;21.17;65.22
66945;BME280;53853;51.982;5.928;2022-08-20T09:07:26;101615.09;;;21.21;63.45
66945;BME280;53853;51.982;5.928;2022-08-20T09:09:59;101612.63;;;21.26;62.78
66945;BME280;53853;51.982;5.928;2022-08-20T09:12:29;101616.63;;;21.30;62.87
66945;BME280;53853;51.982;5.928;2022-08-20T09:14:59;101614.13;;;21.35;61.62
66945;BME280;53853;51.982;5.928;2022-08-20T09:17:31;101616.84;;;21.42;62.87
66945;BME280;53853;51.982;5.928;2022-08-20T09:20:01;101626.06;;;21.48;62.44
66945;BME280;53853;51.982;5.928;2022-08-20T09:22:32;101621.31;;;21.63;62.05
66945;BME280;53853;51.982;5.928;2022-08-20T09:25:28;101622.81;;;21.73;60.85
66945;BME280;53853;51.982;5.928;2022-08-20T09:28:00;101623.91;;;21.85;62.90
66945;BME280;53853;51.982;5.928;2022-08-20T09:30:33;101619.53;;;21.97;61.71
66945;BME280;53853;51.982;5.928;2022-08-20T09:33:05;101615.59;;;22.06;59.30
66945;BME280;53853;51.982;5.928;2022-08-20T09:35:35;101626.66;;;22.12;55.93
66945;BME280;53853;51.982;5.928;2022-08-20T09:38:06;101624.75;;;22.12;55.49
66945;BME280;53853;51.982;5.928;2022-08-20T09:40:36;101623.53;;;22.21;57.38
66945;BME280;53853;51.982;5.928;2022-08-20T09:43:06;101621.06;;;22.40;54.63
66945;BME280;53853;51.982;5.928;2022-08-20T09:45:36;101620.00;;;22.54;57.03
66945;BME280;53853;51.982;5.928;2022-08-20T09:48:09;101623.53;;;22.68;56.23
66945;BME280;53853;51.982;5.928;2022-08-20T09:50:42;101614.31;;;22.76;55.59
66945;BME280;53853;51.982;5.928;2022-08-20T09:53:13;101615.53;;;22.87;55.50
66945;BME280;53853;51.982;5.928;2022-08-20T09:55:44;101614.47;;;22.94;54.92
66945;BME280;53853;51.982;5.928;2022-08-20T09:58:18;101619.09;;;22.80;51.18
66945;BME280;53853;51.982;5.928;2022-08-20T10:00:50;101625.41;;;22.61;50.06
66945;BME280;53853;51.982;5.928;2022-08-20T10:03:22;101618.97;;;22.42;50.24
66945;BME280;53853;51.982;5.928;2022-08-20T10:05:52;101620.84;;;22.35;51.56
66945;BME280;53853;51.982;5.928;2022-08-20T10:08:22;101618.13;;;22.35;52.67
66945;BME280;53853;51.982;5.928;2022-08-20T10:10:51;101612.06;;;22.39;54.12
66945;BME280;53853;51.982;5.928;2022-08-20T10:13:21;101618.53;;;22.52;54.67
66945;BME280;53853;51.982;5.928;2022-08-20T10:15:52;101611.59;;;22.69;55.19
66945;BME280;53853;51.982;5.928;2022-08-20T10:18:30;101619.53;;;22.77;54.75
66945;BME280;53853;51.982;5.928;2022-08-20T10:21:00;101619.09;;;22.80;51.69
66945;BME280;53853;51.982;5.928;2022-08-20T10:23:30;101617.00;;;22.89;51.45
66945;BME280;53853;51.982;5.928;2022-08-20T10:26:00;101619.28;;;22.99;49.82
66945;BME280;53853;51.982;5.928;2022-08-20T10:28:30;101618.03;;;23.08;51.84
66945;BME280;53853;51.982;5.928;2022-08-20T10:30:59;101619.88;;;23.21;50.03
66945;BME280;53853;51.982;5.928;2022-08-20T10:33:33;101612.53;;;23.28;50.85
66945;BME280;53853;51.982;5.928;2022-08-20T10:36:06;101620.84;;;23.40;51.57
66945;BME280;53853;51.982;5.928;2022-08-20T10:38:36;101624.38;;;23.47;48.40
66945;BME280;53853;51.982;5.928;2022-08-20T10:41:05;101625.59;;;23.51;48.54
66945;BME280;53853;51.982;5.928;2022-08-20T10:43:35;101630.00;;;23.52;47.37
66945;BME280;53853;51.982;5.928;2022-08-20T10:46:05;101632.53;;;23.47;47.27
66945;BME280;53853;51.982;5.928;2022-08-20T10:48:38;101630.03;;;23.39;48.01
66945;BME280;53853;51.982;5.928;2022-08-20T10:51:08;101634.44;;;23.40;49.31
66945;BME280;53853;51.982;5.928;2022-08-20T10:53:38;101627.91;;;23.48;50.00
66945;BME280;53853;51.982;5.928;2022-08-20T10:56:08;101632.50;;;23.54;48.17
66945;BME280;53853;51.982;5.928;2022-08-20T10:58:38;101630.16;;;23.58;47.47
66945;BME280;53853;51.982;5.928;2022-08-20T11:01:08;101617.81;;;23.62;48.37
66945;BME280;53853;51.982;5.928;2022-08-20T11:03:40;101615.88;;;23.69;48.04
66945;BME280;53853;51.982;5.928;2022-08-20T11:06:10;101624.63;;;23.78;46.17
66945;BME280;53853;51.982;5.928;2022-08-20T11:08:40;101629.59;;;23.87;45.52
66945;BME280;53853;51.982;5.928;2022-08-20T11:11:10;101626.88;;;23.87;44.90
66945;BME280;53853;51.982;5.928;2022-08-20T11:13:40;101632.72;;;23.91;45.30
66945;BME280;53853;51.982;5.928;2022-08-20T11:16:09;101625.38;;;23.92;46.12
66945;BME280;53853;51.982;5.928;2022-08-20T11:18:42;101621.59;;;23.93;46.43
66945;BME280;53853;51.982;5.928;2022-08-20T11:21:12;101633.53;;;23.98;45.50
66945;BME280;53853;51.982;5.928;2022-08-20T11:23:42;101626.97;;;24.06;43.49
66945;BME280;53853;51.982;5.928;2022-08-20T11:26:19;101633.78;;;24.15;45.26
66945;BME280;53853;51.982;5.928;2022-08-20T11:28:50;101638.19;;;24.16;44.10
66945;BME280;53853;51.982;5.928;2022-08-20T11:31:20;101628.78;;;24.12;44.69
66945;BME280;53853;51.982;5.928;2022-08-20T11:33:52;101630.69;;;24.12;46.12
66945;BME280;53853;51.982;5.928;2022-08-20T11:36:22;101636.75;;;24.14;45.03
66945;BME280;53853;51.982;5.928;2022-08-20T11:38:52;101634.44;;;24.17;46.74
66945;BME280;53853;51.982;5.928;2022-08-20T11:41:25;101639.00;;;24.23;45.52
66945;BME280;53853;51.982;5.928;2022-08-20T11:43:54;101631.59;;;24.31;44.94
66945;BME280;53853;51.982;5.928;2022-08-20T11:46:24;101637.19;;;24.36;42.78
66945;BME280;53853;51.982;5.928;2022-08-20T11:48:57;101642.84;;;24.41;42.92
66945;BME280;53853;51.982;5.928;2022-08-20T11:51:27;101641.31;;;24.45;43.58
66945;BME280;53853;51.982;5.928;2022-08-20T11:53:57;101642.09;;;24.52;43.97
66945;BME280;53853;51.982;5.928;2022-08-20T11:56:27;101636.00;;;24.57;42.91
66945;BME280;53853;51.982;5.928;2022-08-20T11:58:57;101632.16;;;24.65;43.47
66945;BME280;53853;51.982;5.928;2022-08-20T12:01:27;101634.75;;;24.78;43.99
66945;BME280;53853;51.982;5.928;2022-08-20T12:03:59;101624.09;;;24.95;42.10
66945;BME280;53853;51.982;5.928;2022-08-20T12:06:29;101631.53;;;25.06;41.00
66945;BME280;53853;51.982;5.928;2022-08-20T12:08:59;101631.22;;;25.14;41.81
66945;BME280;53853;51.982;5.928;2022-08-20T12:11:29;101622.47;;;25.24;40.67
66945;BME280;53853;51.982;5.928;2022-08-20T12:13:59;101622.03;;;25.27;39.58
66945;BME280;53853;51.982;5.928;2022-08-20T12:16:28;101621.25;;;25.20;40.36
66945;BME280;53853;51.982;5.928;2022-08-20T12:19:01;101611.88;;;25.16;39.09
66945;BME280;53853;51.982;5.928;2022-08-20T12:21:30;101627.56;;;25.02;38.11
66945;BME280;53853;51.982;5.928;2022-08-20T12:24:00;101624.59;;;24.85;40.05
66945;BME280;53853;51.982;5.928;2022-08-20T12:26:30;101617.56;;;24.77;38.67
66945;BME280;53853;51.982;5.928;2022-08-20T12:29:00;101624.97;;;24.70;39.03
66945;BME280;53853;51.982;5.928;2022-08-20T12:31:30;101625.34;;;24.74;38.03
66945;BME280;53853;51.982;5.928;2022-08-20T12:34:02;101624.44;;;24.80;37.52
66945;BME280;53853;51.982;5.928;2022-08-20T12:36:32;101621.66;;;24.87;38.80
66945;BME280;53853;51.982;5.928;2022-08-20T12:39:02;101623.66;;;24.98;39.15
66945;BME280;53853;51.982;5.928;2022-08-20T12:41:33;101627.88;;;25.12;37.14
66945;BME280;53853;51.982;5.928;2022-08-20T12:44:03;101623.31;;;25.25;37.95
66945;BME280;53853;51.982;5.928;2022-08-20T12:46:32;101624.91;;;25.33;38.56
66945;BME280;53853;51.982;5.928;2022-08-20T12:49:05;101628.03;;;25.36;36.55
66945;BME280;53853;51.982;5.928;2022-08-20T12:51:35;101624.31;;;25.30;37.17
66945;BME280;53853;51.982;5.928;2022-08-20T12:54:04;101633.41;;;25.24;36.57
66945;BME280;53853;51.982;5.928;2022-08-20T12:56:34;101627.78;;;25.19;37.30
66945;BME280;53853;51.982;5.928;2022-08-20T12:59:04;101633.09;;;25.14;37.54
66945;BME280;53853;51.982;5.928;2022-08-20T13:01:35;101635.66;;;25.09;37.41
66945;BME280;53853;51.982;5.928;2022-08-20T13:04:07;101629.84;;;25.05;37.76
66945;BME280;53853;51.982;5.928;2022-08-20T13:06:37;101628.38;;;25.03;37.96
66945;BME280;53853;51.982;5.928;2022-08-20T13:09:06;101633.25;;;25.01;37.07
66945;BME280;53853;51.982;5.928;2022-08-20T13:11:36;101627.88;;;24.94;37.35